createdAt,value
2019-04-11T00:00:57.930Z,0.00
2019-04-11T00:01:58.438Z,0.00
2019-04-11T00:02:57.910Z,0.00
2019-04-11T00:03:57.899Z,0.00
2019-04-11T00:04:58.766Z,0.00
2019-04-11T00:05:57.879Z,0.00
2019-04-11T00:06:58.110Z,0.00
2019-04-11T00:07:59.663Z,0.00
2019-04-11T00:08:58.573Z,0.00
2019-04-11T00:09:58.806Z,0.00
2019-04-11T00:10:57.830Z,0.00
2019-04-11T00:11:57.910Z,0.00
2019-04-11T00:12:58.957Z,0.00
2019-04-11T00:13:57.859Z,0.00
2019-04-11T00:14:57.796Z,0.00
2019-04-11T00:15:57.784Z,0.00
2019-04-11T00:16:57.772Z,0.00
2019-04-11T00:17:58.574Z,0.00
2019-04-11T00:18:58.839Z,0.00
2019-04-11T00:19:57.952Z,0.00
2019-04-11T00:20:58.240Z,0.00
2019-04-11T00:21:57.726Z,0.00
2019-04-11T00:22:57.742Z,0.00
2019-04-11T00:23:58.628Z,0.00
2019-04-11T00:24:58.726Z,0.00
2019-04-11T00:25:58.055Z,0.00
2019-04-11T00:26:57.674Z,0.00
2019-04-11T00:27:57.666Z,0.00
2019-04-11T00:28:58.327Z,0.00
2019-04-11T00:29:57.648Z,0.00
2019-04-11T00:30:58.704Z,0.00
2019-04-11T00:31:57.627Z,0.00
2019-04-11T00:32:58.049Z,0.00
2019-04-11T00:33:58.419Z,0.00
2019-04-11T00:34:57.593Z,0.00
2019-04-11T00:35:57.779Z,0.00
2019-04-11T00:36:57.578Z,0.00
2019-04-11T00:37:57.564Z,0.00
2019-04-11T00:38:57.588Z,0.00
2019-04-11T00:39:57.546Z,0.00
2019-04-11T00:40:57.644Z,0.00
2019-04-11T00:41:58.535Z,0.00
2019-04-11T00:42:57.512Z,0.00
2019-04-11T00:43:58.630Z,0.00
2019-04-11T00:44:57.490Z,0.00
2019-04-11T00:45:58.186Z,0.00
2019-04-11T00:46:58.499Z,0.00
2019-04-11T00:47:57.584Z,0.00
2019-04-11T00:48:57.719Z,0.00
2019-04-11T00:49:57.442Z,0.00
2019-04-11T00:50:57.457Z,0.00
2019-04-11T00:51:58.313Z,0.00
2019-04-11T00:52:57.980Z,0.00
2019-04-11T00:53:58.309Z,0.00
2019-04-11T00:54:57.437Z,0.00
2019-04-11T00:55:57.413Z,0.00
2019-04-11T00:56:57.372Z,0.00
2019-04-11T00:57:57.391Z,0.00
2019-04-11T00:58:58.278Z,0.00
2019-04-11T00:59:58.282Z,0.00
2019-04-11T01:00:57.530Z,0.00
2019-04-11T01:01:57.321Z,0.00
2019-04-11T01:02:57.938Z,0.00
2019-04-11T01:03:57.302Z,0.00
2019-04-11T01:04:57.287Z,0.00
2019-04-11T01:05:58.265Z,0.00
2019-04-11T01:06:57.272Z,0.00
2019-04-11T01:07:57.721Z,0.00
2019-04-11T01:08:57.252Z,0.00
2019-04-11T01:09:57.239Z,0.00
2019-04-11T01:10:57.426Z,0.00
2019-04-11T01:11:58.387Z,0.00
2019-04-11T01:12:57.211Z,0.00
2019-04-11T01:13:57.365Z,0.00
2019-04-11T01:14:57.390Z,0.00
2019-04-11T01:15:57.202Z,0.00
2019-04-11T01:16:57.168Z,0.00
2019-04-11T01:17:58.012Z,0.00
2019-04-11T01:18:58.240Z,0.00
2019-04-11T01:19:57.408Z,0.00
2019-04-11T01:20:57.128Z,0.00
2019-04-11T01:21:58.355Z,0.00
2019-04-11T01:22:57.112Z,0.00
2019-04-11T01:23:57.533Z,0.00
2019-04-11T01:24:57.831Z,0.00
2019-04-11T01:25:57.145Z,0.00
2019-04-11T01:26:57.360Z,0.00
2019-04-11T01:27:57.059Z,0.00
2019-04-11T01:28:57.053Z,0.00
2019-04-11T01:29:57.827Z,0.00
2019-04-11T01:30:57.620Z,0.00
2019-04-11T01:31:58.063Z,0.00
2019-04-11T01:32:57.021Z,0.00
2019-04-11T01:33:57.081Z,0.00
2019-04-11T01:34:57.180Z,0.00
2019-04-11T01:35:57.474Z,0.00
2019-04-11T01:36:57.553Z,0.00
2019-04-11T01:37:57.805Z,0.00
2019-04-11T01:38:57.029Z,0.00
2019-04-11T01:39:57.219Z,0.00
2019-04-11T01:40:56.920Z,0.00
2019-04-11T01:41:56.909Z,0.00
2019-04-11T01:42:57.656Z,0.00
2019-04-11T01:44:02.090Z,0.00
2019-04-11T01:44:57.004Z,0.00
2019-04-11T01:45:57.935Z,0.00
2019-04-11T01:46:56.865Z,0.00
2019-04-11T01:47:57.403Z,0.00
2019-04-11T01:48:57.658Z,0.00
2019-04-11T01:49:56.826Z,0.00
2019-04-11T01:50:57.094Z,0.00
2019-04-11T01:51:58.066Z,0.00
2019-04-11T01:52:56.797Z,0.00
2019-04-11T01:53:57.433Z,0.00
2019-04-11T01:54:56.773Z,0.00
2019-04-11T01:55:56.931Z,0.00
2019-04-11T01:56:57.902Z,0.00
2019-04-11T01:57:56.752Z,0.00
2019-04-11T01:58:57.295Z,0.00
2019-04-11T01:59:56.762Z,0.00
2019-04-11T02:00:56.839Z,0.00
2019-04-11T02:02:03.992Z,0.00
2019-04-11T02:03:50.282Z,0.00
2019-04-11T02:04:52.316Z,0.00
2019-04-11T02:06:43.172Z,0.00
2019-04-11T02:07:42.946Z,0.00
2019-04-11T02:09:35.998Z,0.00
2019-04-11T02:10:36.940Z,0.00
2019-04-11T02:12:29.029Z,0.00
2019-04-11T02:13:28.662Z,0.00
2019-04-11T02:15:21.973Z,0.00
2019-04-11T02:16:21.557Z,0.00
2019-04-11T02:18:15.105Z,0.00
2019-04-11T02:19:14.792Z,0.00
2019-04-11T02:21:09.355Z,0.00
2019-04-11T02:22:08.917Z,0.00
2019-04-11T02:24:01.627Z,0.00
2019-04-11T02:25:00.964Z,0.00
2019-04-11T02:26:54.608Z,0.00
2019-04-11T02:27:53.820Z,0.00
2019-04-11T02:29:46.883Z,0.00
2019-04-11T02:30:48.446Z,0.00
2019-04-11T02:31:47.274Z,0.00
2019-04-11T02:32:47.883Z,0.00
2019-04-11T02:33:46.979Z,0.00
2019-04-11T02:34:48.085Z,0.00
2019-04-11T02:35:49.031Z,0.00
2019-04-11T02:36:46.643Z,0.00
2019-04-11T02:37:49.938Z,0.00
2019-04-11T02:38:53.089Z,0.00
2019-04-11T02:39:47.268Z,0.00
2019-04-11T02:40:48.008Z,0.00
2019-04-11T02:41:47.240Z,0.00
2019-04-11T02:42:47.545Z,0.00
2019-04-11T02:43:46.812Z,0.00
2019-04-11T02:45:03.500Z,0.00
2019-04-11T02:45:58.150Z,0.00
2019-04-11T02:46:55.854Z,0.00
2019-04-11T02:47:48.385Z,0.00
2019-04-11T02:48:46.426Z,0.00
2019-04-11T02:49:47.704Z,0.00
2019-04-11T02:50:47.890Z,0.00
2019-04-11T02:51:47.420Z,0.00
2019-04-11T02:52:47.397Z,0.00
2019-04-11T02:53:47.279Z,0.00
2019-04-11T02:54:47.403Z,0.00
2019-04-11T02:55:46.815Z,0.00
2019-04-11T02:56:48.791Z,0.00
2019-04-11T02:57:48.120Z,0.00
2019-04-11T02:58:46.974Z,0.00
2019-04-11T02:59:47.283Z,0.00
2019-04-11T03:00:46.287Z,0.00
2019-04-11T03:01:46.514Z,0.00
2019-04-11T03:02:47.882Z,0.00
2019-04-11T03:03:47.451Z,0.00
2019-04-11T03:04:47.967Z,0.00
2019-04-11T03:05:46.985Z,0.00
2019-04-11T03:06:47.784Z,0.00
2019-04-11T03:07:47.674Z,0.00
2019-04-11T03:08:46.466Z,0.00
2019-04-11T03:09:48.606Z,0.00
2019-04-11T03:10:46.639Z,0.00
2019-04-11T03:11:47.213Z,0.00
2019-04-11T03:12:47.928Z,0.00
2019-04-11T03:13:46.545Z,0.00
2019-04-11T03:15:05.541Z,0.00
2019-04-11T03:16:02.099Z,0.00
2019-04-11T03:16:57.271Z,0.00
2019-04-11T03:17:48.486Z,0.00
2019-04-11T03:19:05.661Z,0.00
2019-04-11T03:19:59.623Z,0.00
2019-04-11T03:20:52.924Z,0.00
2019-04-11T03:21:47.288Z,0.00
2019-04-11T03:22:54.160Z,0.00
2019-04-11T03:23:46.777Z,0.00
2019-04-11T03:24:46.950Z,0.00
2019-04-11T03:25:46.890Z,0.00
2019-04-11T03:26:46.298Z,0.00
2019-04-11T03:27:47.538Z,0.00
2019-04-11T03:28:49.454Z,0.00
2019-04-11T03:29:45.966Z,0.00
2019-04-11T03:31:04.173Z,0.00
2019-04-11T03:33:43.823Z,0.00
2019-04-11T03:34:53.663Z,0.00
2019-04-11T03:35:45.473Z,0.00
2019-04-11T03:38:05.593Z,0.00
2019-04-11T03:39:07.669Z,0.00
2019-04-11T03:40:06.053Z,0.00
2019-04-11T03:41:05.900Z,0.00
2019-04-11T03:42:07.547Z,0.00
2019-04-11T03:43:00.287Z,0.00
2019-04-11T03:43:58.228Z,0.00
2019-04-11T03:44:54.854Z,0.00
2019-04-11T03:46:03.873Z,0.00
2019-04-11T03:47:01.231Z,0.00
2019-04-11T03:48:01.685Z,0.00
2019-04-11T03:48:57.546Z,0.00
2019-04-11T03:49:51.843Z,0.00
2019-04-11T03:50:46.822Z,0.00
2019-04-11T03:51:47.911Z,0.00
2019-04-11T03:52:45.721Z,0.00
2019-04-11T03:53:47.114Z,0.00
2019-04-11T03:54:47.365Z,0.00
2019-04-11T03:55:47.308Z,0.00
2019-04-11T03:56:45.903Z,0.00
2019-04-11T03:57:47.022Z,0.00
2019-04-11T03:58:46.138Z,0.00
2019-04-11T03:59:45.965Z,0.00
2019-04-11T04:00:46.634Z,0.00
2019-04-11T04:01:46.685Z,0.00
2019-04-11T04:02:46.781Z,0.00
2019-04-11T04:03:46.680Z,0.00
2019-04-11T04:04:45.740Z,0.00
2019-04-11T04:05:45.575Z,0.00
2019-04-11T04:06:46.226Z,0.00
2019-04-11T04:07:46.554Z,0.00
2019-04-11T04:08:46.594Z,0.00
2019-04-11T04:09:46.229Z,0.00
2019-04-11T04:10:45.521Z,0.00
2019-04-11T04:11:46.896Z,0.00
2019-04-11T04:12:47.343Z,0.00
2019-04-11T04:13:47.303Z,0.00
2019-04-11T04:14:46.712Z,0.00
2019-04-11T04:15:59.700Z,0.00
2019-04-11T04:16:48.300Z,0.00
2019-04-11T04:17:45.619Z,0.00
2019-04-11T04:18:45.817Z,0.00
2019-04-11T04:19:45.669Z,0.00
2019-04-11T04:20:46.090Z,0.00
2019-04-11T04:21:46.855Z,0.00
2019-04-11T04:22:47.436Z,0.00
2019-04-11T04:23:45.844Z,0.00
2019-04-11T04:24:46.859Z,0.00
2019-04-11T04:25:47.216Z,0.00
2019-04-11T04:26:45.360Z,0.00
2019-04-11T04:27:46.766Z,0.00
2019-04-11T04:28:45.418Z,0.00
2019-04-11T04:29:57.035Z,0.00
2019-04-11T04:31:38.645Z,0.00
2019-04-11T04:32:38.683Z,0.00
2019-04-11T04:34:31.587Z,0.00
2019-04-11T04:35:31.680Z,0.00
2019-04-11T04:37:26.285Z,5.63
2019-04-11T04:38:24.063Z,5.63
2019-04-11T04:40:32.260Z,5.63
2019-04-11T04:41:33.481Z,5.63
2019-04-11T04:43:11.915Z,5.63
2019-04-11T04:44:10.521Z,5.63
2019-04-11T04:46:20.390Z,5.63
2019-04-11T04:47:15.271Z,11.25
2019-04-11T04:48:58.366Z,11.25
2019-04-11T04:50:04.643Z,11.25
2019-04-11T04:51:51.188Z,11.25
2019-04-11T04:52:51.565Z,11.25
2019-04-11T04:54:44.334Z,11.25
2019-04-11T04:55:43.623Z,16.88
2019-04-11T04:57:37.452Z,16.88
2019-04-11T04:58:35.671Z,16.88
2019-04-11T05:00:31.466Z,16.88
2019-04-11T05:01:29.093Z,16.88
2019-04-11T05:02:30.316Z,22.50
2019-04-11T05:03:29.809Z,22.50
2019-04-11T05:04:29.718Z,22.50
2019-04-11T05:05:29.246Z,22.50
2019-04-11T05:06:28.840Z,22.50
2019-04-11T05:07:32.203Z,22.50
2019-04-11T05:08:28.390Z,22.50
2019-04-11T05:09:29.845Z,22.50
2019-04-11T05:10:28.510Z,28.13
2019-04-11T05:11:28.461Z,22.50
2019-04-11T05:12:28.349Z,28.13
2019-04-11T05:13:30.042Z,28.13
2019-04-11T05:14:29.551Z,28.13
2019-04-11T05:15:28.346Z,28.13
2019-04-11T05:16:28.306Z,28.13
2019-04-11T05:17:28.990Z,33.75
2019-04-11T05:18:28.284Z,33.75
2019-04-11T05:19:28.560Z,33.75
2019-04-11T05:20:28.269Z,33.75
2019-04-11T05:21:28.254Z,33.75
2019-04-11T05:22:28.239Z,33.75
2019-04-11T05:23:28.236Z,33.75
2019-04-11T05:24:28.354Z,33.75
2019-04-11T05:25:28.620Z,39.38
2019-04-11T05:26:28.193Z,39.38
2019-04-11T05:27:29.263Z,39.38
2019-04-11T05:28:28.174Z,39.38
2019-04-11T05:29:29.245Z,39.38
2019-04-11T05:30:29.161Z,39.38
2019-04-11T05:31:28.160Z,39.38
2019-04-11T05:32:29.147Z,45.00
2019-04-11T05:33:29.340Z,45.00
2019-04-11T05:34:28.179Z,45.00
2019-04-11T05:35:28.096Z,45.00
2019-04-11T05:36:28.353Z,45.00
2019-04-11T05:37:29.143Z,45.00
2019-04-11T05:38:29.223Z,45.00
2019-04-11T05:39:28.055Z,50.63
2019-04-11T05:40:28.145Z,50.63
2019-04-11T05:41:29.296Z,50.63
2019-04-11T05:42:29.157Z,50.63
2019-04-11T05:43:31.458Z,50.63
2019-04-11T05:44:28.485Z,50.63
2019-04-11T05:45:27.993Z,50.63
2019-04-11T05:46:35.281Z,50.63
2019-04-11T05:47:27.993Z,56.25
2019-04-11T05:48:28.639Z,56.25
2019-04-11T05:49:29.087Z,56.25
2019-04-11T05:50:28.442Z,56.25
2019-04-11T05:51:36.985Z,56.25
2019-04-11T05:52:31.085Z,56.25
2019-04-11T05:53:27.999Z,56.25
2019-04-11T05:54:28.156Z,61.88
2019-04-11T05:55:28.051Z,61.88
2019-04-11T05:56:27.897Z,61.88
2019-04-11T05:57:35.193Z,61.88
2019-04-11T05:58:28.239Z,61.88
2019-04-11T05:59:27.849Z,61.88
2019-04-11T06:00:28.434Z,67.50
2019-04-11T06:01:29.012Z,67.50
2019-04-11T06:02:29.036Z,67.50
2019-04-11T06:03:28.297Z,67.50
2019-04-11T06:04:29.938Z,67.50
2019-04-11T06:05:31.854Z,73.13
2019-04-11T06:06:31.929Z,73.13
2019-04-11T06:07:27.765Z,73.13
2019-04-11T06:08:30.291Z,73.13
2019-04-11T06:09:33.763Z,73.13
2019-04-11T06:10:28.259Z,78.75
2019-04-11T06:11:28.521Z,78.75
2019-04-11T06:12:27.719Z,78.75
2019-04-11T06:13:28.714Z,78.75
2019-04-11T06:14:27.708Z,84.38
2019-04-11T06:15:27.696Z,84.38
2019-04-11T06:16:36.849Z,84.38
2019-04-11T06:17:27.679Z,90.00
2019-04-11T06:18:33.072Z,90.00
2019-04-11T06:19:28.229Z,95.63
2019-04-11T06:20:27.696Z,95.63
2019-04-11T06:21:28.382Z,101.25
2019-04-11T06:22:27.634Z,101.25
2019-04-11T06:23:27.618Z,106.88
2019-04-11T06:24:27.994Z,101.25
2019-04-11T06:25:28.241Z,95.63
2019-04-11T06:26:27.592Z,106.88
2019-04-11T06:27:28.546Z,129.38
2019-04-11T06:28:28.739Z,151.88
2019-04-11T06:29:28.409Z,180.00
2019-04-11T06:30:28.360Z,135.00
2019-04-11T06:31:27.543Z,112.50
2019-04-11T06:32:27.850Z,112.50
2019-04-11T06:33:27.528Z,135.00
2019-04-11T06:34:27.528Z,202.50
2019-04-11T06:35:28.246Z,225.00
2019-04-11T06:36:28.134Z,157.50
2019-04-11T06:37:27.714Z,135.00
2019-04-11T06:38:27.515Z,123.75
2019-04-11T06:39:27.518Z,123.75
2019-04-11T06:40:27.744Z,219.38
2019-04-11T06:41:27.476Z,146.25
2019-04-11T06:42:28.630Z,129.38
2019-04-11T06:43:27.845Z,123.75
2019-04-11T06:44:28.003Z,106.88
2019-04-11T06:45:27.437Z,106.88
2019-04-11T06:46:27.435Z,106.88
2019-04-11T06:47:27.452Z,106.88
2019-04-11T06:48:27.463Z,123.75
2019-04-11T06:49:28.543Z,118.13
2019-04-11T06:50:27.405Z,112.50
2019-04-11T06:51:28.168Z,118.13
2019-04-11T06:52:28.642Z,112.50
2019-04-11T06:53:28.072Z,118.13
2019-04-11T06:54:28.627Z,112.50
2019-04-11T06:55:27.372Z,101.25
2019-04-11T06:56:27.377Z,101.25
2019-04-11T06:57:27.354Z,101.25
2019-04-11T06:58:27.645Z,106.88
2019-04-11T06:59:28.090Z,101.25
2019-04-11T07:00:27.394Z,106.88
2019-04-11T07:01:27.999Z,112.50
2019-04-11T07:02:27.942Z,118.13
2019-04-11T07:03:30.057Z,118.13
2019-04-11T07:04:27.434Z,118.13
2019-04-11T07:05:27.298Z,112.50
2019-04-11T07:06:27.384Z,112.50
2019-04-11T07:07:28.968Z,118.13
2019-04-11T07:08:27.280Z,129.38
2019-04-11T07:09:27.313Z,140.63
2019-04-11T07:10:28.512Z,140.63
2019-04-11T07:11:27.625Z,140.63
2019-04-11T07:12:28.427Z,146.25
2019-04-11T07:13:28.314Z,151.88
2019-04-11T07:14:27.230Z,146.25
2019-04-11T07:15:27.311Z,146.25
2019-04-11T07:16:27.606Z,151.88
2019-04-11T07:17:27.536Z,163.13
2019-04-11T07:18:27.205Z,174.38
2019-04-11T07:19:27.193Z,174.38
2019-04-11T07:20:27.329Z,157.50
2019-04-11T07:21:27.602Z,146.25
2019-04-11T07:22:27.414Z,151.88
2019-04-11T07:23:27.167Z,157.50
2019-04-11T07:24:28.114Z,168.75
2019-04-11T07:25:27.158Z,185.63
2019-04-11T07:26:27.416Z,208.13
2019-04-11T07:27:27.896Z,303.75
2019-04-11T07:28:27.369Z,225.00
2019-04-11T07:29:27.125Z,225.00
2019-04-11T07:30:27.121Z,236.25
2019-04-11T07:31:27.696Z,247.50
2019-04-11T07:32:27.821Z,253.13
2019-04-11T07:33:27.104Z,326.25
2019-04-11T07:34:31.248Z,455.63
2019-04-11T07:35:27.685Z,354.38
2019-04-11T07:36:27.373Z,309.38
2019-04-11T07:37:28.113Z,382.50
2019-04-11T07:38:27.301Z,500.63
2019-04-11T07:39:27.072Z,483.75
2019-04-11T07:40:28.826Z,427.50
2019-04-11T07:41:27.073Z,461.25
2019-04-11T07:42:27.067Z,382.50
2019-04-11T07:43:27.077Z,562.50
2019-04-11T07:44:28.829Z,585.00
2019-04-11T07:45:27.046Z,630.00
2019-04-11T07:46:27.770Z,264.38
2019-04-11T07:47:28.181Z,320.63
2019-04-11T07:48:27.259Z,708.75
2019-04-11T07:49:27.042Z,765.00
2019-04-11T07:50:27.654Z,787.50
2019-04-11T07:51:27.557Z,742.50
2019-04-11T07:52:28.143Z,438.75
2019-04-11T07:53:27.049Z,607.50
2019-04-11T07:54:28.122Z,781.88
2019-04-11T07:55:27.941Z,500.63
2019-04-11T07:56:27.365Z,292.50
2019-04-11T07:57:27.022Z,343.13
2019-04-11T07:58:27.019Z,315.00
2019-04-11T07:59:27.216Z,804.38
2019-04-11T08:00:36.734Z,315.00
2019-04-11T08:01:27.152Z,264.38
2019-04-11T08:02:27.039Z,264.38
2019-04-11T08:03:27.736Z,258.75
2019-04-11T08:04:27.761Z,495.00
2019-04-11T08:05:27.993Z,596.25
2019-04-11T08:06:26.999Z,292.50
2019-04-11T08:07:28.183Z,1501.88
2019-04-11T08:08:27.009Z,1473.75
2019-04-11T08:09:27.006Z,1524.38
2019-04-11T08:10:27.201Z,1575.00
2019-04-11T08:11:27.479Z,1552.50
2019-04-11T08:12:27.585Z,1501.88
2019-04-11T08:13:28.221Z,1462.50
2019-04-11T08:14:26.989Z,1428.75
2019-04-11T08:15:26.981Z,1423.13
2019-04-11T08:16:26.978Z,1411.88
2019-04-11T08:17:35.708Z,1400.63
2019-04-11T08:18:26.984Z,1406.25
2019-04-11T08:19:26.978Z,1389.38
2019-04-11T08:20:26.983Z,1383.75
2019-04-11T08:21:28.210Z,1395.00
2019-04-11T08:22:27.257Z,1361.25
2019-04-11T08:23:27.785Z,1344.38
2019-04-11T08:24:28.495Z,1327.50
2019-04-11T08:25:27.141Z,1316.25
2019-04-11T08:26:28.224Z,720.00
2019-04-11T08:27:27.486Z,1282.50
2019-04-11T08:28:27.006Z,1271.25
2019-04-11T08:29:27.185Z,1226.25
2019-04-11T08:30:27.015Z,1231.88
2019-04-11T08:31:26.999Z,1158.75
2019-04-11T08:32:27.499Z,1153.13
2019-04-11T08:33:26.999Z,1164.38
2019-04-11T08:34:27.097Z,1147.50
2019-04-11T08:35:28.243Z,1186.88
2019-04-11T08:36:27.011Z,815.63
2019-04-11T08:37:27.596Z,343.13
2019-04-11T08:38:27.052Z,1130.63
2019-04-11T08:39:27.073Z,326.25
2019-04-11T08:40:28.135Z,1164.38
2019-04-11T08:41:27.438Z,315.00
2019-04-11T08:42:27.481Z,1096.88
2019-04-11T08:43:27.169Z,286.88
2019-04-11T08:44:28.014Z,241.88
2019-04-11T08:45:27.042Z,191.25
2019-04-11T08:46:27.104Z,174.38
2019-04-11T08:47:40.202Z,174.38
2019-04-11T08:48:27.044Z,196.88
2019-04-11T08:49:29.101Z,1035.00
2019-04-11T08:50:28.253Z,163.13
2019-04-11T08:51:27.458Z,157.50
2019-04-11T08:52:27.909Z,230.63
2019-04-11T08:53:27.116Z,1141.88
2019-04-11T08:54:27.123Z,405.00
2019-04-11T08:55:27.345Z,196.88
2019-04-11T08:56:28.114Z,174.38
2019-04-11T08:57:27.554Z,180.00
2019-04-11T08:58:27.036Z,208.13
2019-04-11T08:59:27.146Z,1260.00
2019-04-11T09:00:28.068Z,270.00
2019-04-11T09:01:27.763Z,275.63
2019-04-11T09:02:27.033Z,348.75
2019-04-11T09:03:27.031Z,258.75
2019-04-11T09:04:27.075Z,264.38
2019-04-11T09:05:27.110Z,292.50
2019-04-11T09:06:28.078Z,241.88
2019-04-11T09:07:27.569Z,253.13
2019-04-11T09:08:27.021Z,461.25
2019-04-11T09:09:27.335Z,1597.50
2019-04-11T09:10:28.186Z,326.25
2019-04-11T09:11:27.014Z,315.00
2019-04-11T09:12:27.014Z,337.50
2019-04-11T09:13:27.203Z,253.13
2019-04-11T09:14:28.284Z,253.13
2019-04-11T09:15:27.004Z,495.00
2019-04-11T09:16:27.763Z,1321.88
2019-04-11T09:17:28.133Z,292.50
2019-04-11T09:18:28.065Z,1271.25
2019-04-11T09:19:27.282Z,1220.63
2019-04-11T09:20:27.630Z,1192.50
2019-04-11T09:21:26.998Z,776.25
2019-04-11T09:22:26.993Z,1147.50
2019-04-11T09:23:27.935Z,1158.75
2019-04-11T09:24:26.996Z,1164.38
2019-04-11T09:25:27.427Z,1186.88
2019-04-11T09:26:27.685Z,1181.25
2019-04-11T09:27:26.999Z,1186.88
2019-04-11T09:28:27.200Z,1181.25
2019-04-11T09:29:28.238Z,815.63
2019-04-11T09:30:27.027Z,1119.38
2019-04-11T09:31:27.585Z,1113.75
2019-04-11T09:32:27.029Z,1102.50
2019-04-11T09:33:27.041Z,1096.88
2019-04-11T09:34:28.048Z,1068.75
2019-04-11T09:35:27.031Z,1040.63
2019-04-11T09:36:28.988Z,1012.50
2019-04-11T09:37:27.413Z,967.50
2019-04-11T09:38:27.063Z,978.75
2019-04-11T09:39:27.057Z,961.88
2019-04-11T09:40:28.052Z,967.50
2019-04-11T09:41:28.195Z,472.50
2019-04-11T09:42:28.303Z,410.63
2019-04-11T09:43:28.108Z,320.63
2019-04-11T09:44:27.081Z,292.50
2019-04-11T09:45:27.753Z,281.25
2019-04-11T09:46:27.228Z,258.75
2019-04-11T09:47:28.244Z,281.25
2019-04-11T09:48:27.118Z,270.00
2019-04-11T09:49:27.157Z,270.00
2019-04-11T09:50:27.100Z,348.75
2019-04-11T09:51:29.101Z,309.38
2019-04-11T09:52:27.123Z,365.63
2019-04-11T09:53:28.173Z,264.38
2019-04-11T09:54:28.186Z,241.88
2019-04-11T09:55:27.114Z,258.75
2019-04-11T09:56:27.165Z,247.50
2019-04-11T09:57:27.112Z,264.38
2019-04-11T09:58:27.491Z,264.38
2019-04-11T09:59:27.258Z,309.38
2019-04-11T10:00:28.725Z,264.38
2019-04-11T10:01:27.136Z,253.13
2019-04-11T10:02:27.518Z,247.50
2019-04-11T10:03:27.843Z,253.13
2019-04-11T10:04:27.634Z,371.25
2019-04-11T10:05:27.142Z,376.88
2019-04-11T10:06:28.127Z,309.38
2019-04-11T10:07:28.121Z,365.63
2019-04-11T10:08:29.073Z,292.50
2019-04-11T10:09:28.162Z,337.50
2019-04-11T10:10:27.112Z,320.63
2019-04-11T10:11:28.246Z,213.75
2019-04-11T10:12:27.626Z,219.38
2019-04-11T10:13:27.109Z,241.88
2019-04-11T10:14:27.114Z,253.13
2019-04-11T10:15:27.260Z,264.38
2019-04-11T10:16:28.248Z,270.00
2019-04-11T10:17:27.104Z,343.13
2019-04-11T10:18:32.186Z,388.13
2019-04-11T10:19:27.732Z,410.63
2019-04-11T10:20:27.103Z,405.00
2019-04-11T10:21:27.123Z,315.00
2019-04-11T10:22:27.168Z,303.75
2019-04-11T10:23:27.103Z,382.50
2019-04-11T10:24:27.210Z,315.00
2019-04-11T10:25:28.247Z,354.38
2019-04-11T10:26:27.815Z,343.13
2019-04-11T10:27:27.088Z,315.00
2019-04-11T10:28:27.379Z,405.00
2019-04-11T10:29:29.988Z,405.00
2019-04-11T10:30:27.087Z,309.38
2019-04-11T10:31:27.115Z,298.13
2019-04-11T10:32:27.521Z,292.50
2019-04-11T10:33:27.078Z,286.88
2019-04-11T10:34:27.965Z,286.88
2019-04-11T10:35:27.200Z,292.50
2019-04-11T10:36:27.388Z,298.13
2019-04-11T10:37:27.595Z,315.00
2019-04-11T10:38:27.080Z,337.50
2019-04-11T10:39:27.186Z,337.50
2019-04-11T10:40:28.086Z,365.63
2019-04-11T10:41:27.070Z,399.38
2019-04-11T10:42:27.068Z,399.38
2019-04-11T10:43:27.064Z,298.13
2019-04-11T10:44:27.062Z,309.38
2019-04-11T10:45:27.069Z,393.75
2019-04-11T10:46:27.158Z,298.13
2019-04-11T10:47:27.129Z,360.00
2019-04-11T10:48:34.602Z,281.25
2019-04-11T10:49:28.335Z,348.75
2019-04-11T10:50:27.059Z,354.38
2019-04-11T10:51:27.054Z,303.75
2019-04-11T10:52:27.053Z,281.25
2019-04-11T10:53:27.144Z,270.00
2019-04-11T10:54:27.968Z,270.00
2019-04-11T10:55:27.356Z,270.00
2019-04-11T10:56:27.068Z,247.50
2019-04-11T10:57:27.755Z,236.25
2019-04-11T10:58:27.041Z,253.13
2019-04-11T10:59:27.954Z,219.38
2019-04-11T11:00:27.290Z,219.38
2019-04-11T11:01:28.254Z,213.75
2019-04-11T11:02:27.242Z,241.88
2019-04-11T11:03:27.871Z,309.38
2019-04-11T11:04:27.626Z,343.13
2019-04-11T11:05:27.030Z,343.13
2019-04-11T11:06:27.479Z,331.88
2019-04-11T11:07:27.045Z,309.38
2019-04-11T11:08:27.068Z,315.00
2019-04-11T11:09:28.233Z,309.38
2019-04-11T11:10:27.814Z,298.13
2019-04-11T11:11:28.267Z,303.75
2019-04-11T11:12:27.676Z,315.00
2019-04-11T11:13:27.015Z,281.25
